sensor_id;sensor_type;location;lat;lon;timestamp;temperature;humidity
4097;DHT22;2062;50.694;7.246;2023-05-29T00:00:26;16.90;38.20
4097;DHT22;2062;50.694;7.246;2023-05-29T00:02:54;16.80;38.20
4097;DHT22;2062;50.694;7.246;2023-05-29T00:05:21;16.80;38.50
4097;DHT22;2062;50.694;7.246;2023-05-29T00:07:48;16.70;38.70
4097;DHT22;2062;50.694;7.246;2023-05-29T00:10:16;16.70;38.60
4097;DHT22;2062;50.694;7.246;2023-05-29T00:12:44;16.60;38.80
4097;DHT22;2062;50.694;7.246;2023-05-29T00:15:11;16.50;38.80
4097;DHT22;2062;50.694;7.246;2023-05-29T00:17:38;16.50;38.70
4097;DHT22;2062;50.694;7.246;2023-05-29T00:20:06;16.50;39.00
4097;DHT22;2062;50.694;7.246;2023-05-29T00:22:35;16.50;39.00
4097;DHT22;2062;50.694;7.246;2023-05-29T00:25:03;16.40;38.90
4097;DHT22;2062;50.694;7.246;2023-05-29T00:27:30;16.40;38.80
4097;DHT22;2062;50.694;7.246;2023-05-29T00:29:59;16.40;38.90
4097;DHT22;2062;50.694;7.246;2023-05-29T00:32:26;16.30;39.20
4097;DHT22;2062;50.694;7.246;2023-05-29T00:34:53;16.30;39.60
4097;DHT22;2062;50.694;7.246;2023-05-29T00:37:20;16.20;39.20
4097;DHT22;2062;50.694;7.246;2023-05-29T00:39:47;16.20;39.30
4097;DHT22;2062;50.694;7.246;2023-05-29T00:42:14;16.20;39.70
4097;DHT22;2062;50.694;7.246;2023-05-29T00:44:41;16.10;40.00
4097;DHT22;2062;50.694;7.246;2023-05-29T00:47:09;16.10;39.90
4097;DHT22;2062;50.694;7.246;2023-05-29T00:49:36;16.10;39.90
4097;DHT22;2062;50.694;7.246;2023-05-29T00:52:05;16.20;39.90
4097;DHT22;2062;50.694;7.246;2023-05-29T00:54:33;16.00;39.80
4097;DHT22;2062;50.694;7.246;2023-05-29T00:57:02;16.00;40.20
4097;DHT22;2062;50.694;7.246;2023-05-29T00:59:32;15.90;40.50
4097;DHT22;2062;50.694;7.246;2023-05-29T01:02:00;15.90;40.60
4097;DHT22;2062;50.694;7.246;2023-05-29T01:04:29;15.80;40.40
4097;DHT22;2062;50.694;7.246;2023-05-29T01:06:59;15.80;40.40
4097;DHT22;2062;50.694;7.246;2023-05-29T01:09:27;15.80;40.70
4097;DHT22;2062;50.694;7.246;2023-05-29T01:11:59;15.70;40.60
4097;DHT22;2062;50.694;7.246;2023-05-29T01:14:36;15.70;41.10
4097;DHT22;2062;50.694;7.246;2023-05-29T01:17:14;15.70;40.70
4097;DHT22;2062;50.694;7.246;2023-05-29T01:20:08;15.60;40.80
4097;DHT22;2062;50.694;7.246;2023-05-29T01:22:53;15.60;41.30
4097;DHT22;2062;50.694;7.246;2023-05-29T01:25:24;15.60;40.90
4097;DHT22;2062;50.694;7.246;2023-05-29T01:27:59;15.60;41.10
4097;DHT22;2062;50.694;7.246;2023-05-29T01:30:28;15.50;41.10
4097;DHT22;2062;50.694;7.246;2023-05-29T01:32:58;15.40;41.40
4097;DHT22;2062;50.694;7.246;2023-05-29T01:35:25;15.50;41.40
4097;DHT22;2062;50.694;7.246;2023-05-29T01:37:52;15.40;41.40
4097;DHT22;2062;50.694;7.246;2023-05-29T01:40:18;15.40;41.90
4097;DHT22;2062;50.694;7.246;2023-05-29T01:42:45;15.40;41.80
4097;DHT22;2062;50.694;7.246;2023-05-29T01:45:14;15.30;42.30
4097;DHT22;2062;50.694;7.246;2023-05-29T01:47:42;15.20;41.70
4097;DHT22;2062;50.694;7.246;2023-05-29T01:50:11;15.20;41.80
4097;DHT22;2062;50.694;7.246;2023-05-29T01:52:39;15.20;42.30
4097;DHT22;2062;50.694;7.246;2023-05-29T01:55:07;15.20;42.30
4097;DHT22;2062;50.694;7.246;2023-05-29T01:57:35;15.10;42.00
4097;DHT22;2062;50.694;7.246;2023-05-29T02:00:03;15.10;42.10
4097;DHT22;2062;50.694;7.246;2023-05-29T02:02:37;15.10;42.00
4097;DHT22;2062;50.694;7.246;2023-05-29T02:05:05;15.10;41.90
4097;DHT22;2062;50.694;7.246;2023-05-29T02:07:32;15.00;42.30
4097;DHT22;2062;50.694;7.246;2023-05-29T02:09:59;15.00;42.10
4097;DHT22;2062;50.694;7.246;2023-05-29T02:12:26;15.00;41.90
4097;DHT22;2062;50.694;7.246;2023-05-29T02:14:52;15.00;42.10
4097;DHT22;2062;50.694;7.246;2023-05-29T02:17:19;14.90;42.30
4097;DHT22;2062;50.694;7.246;2023-05-29T02:19:47;14.90;42.40
4097;DHT22;2062;50.694;7.246;2023-05-29T02:22:14;14.90;42.50
4097;DHT22;2062;50.694;7.246;2023-05-29T02:24:41;14.90;42.60
4097;DHT22;2062;50.694;7.246;2023-05-29T02:27:07;14.80;42.50
4097;DHT22;2062;50.694;7.246;2023-05-29T02:29:34;14.80;42.30
4097;DHT22;2062;50.694;7.246;2023-05-29T02:32:01;14.80;42.40
4097;DHT22;2062;50.694;7.246;2023-05-29T02:34:28;14.80;42.60
4097;DHT22;2062;50.694;7.246;2023-05-29T02:36:56;14.70;43.80
4097;DHT22;2062;50.694;7.246;2023-05-29T02:39:23;14.70;42.80
4097;DHT22;2062;50.694;7.246;2023-05-29T02:41:50;14.70;42.90
4097;DHT22;2062;50.694;7.246;2023-05-29T02:44:16;14.60;43.10
4097;DHT22;2062;50.694;7.246;2023-05-29T02:46:43;14.60;42.90
4097;DHT22;2062;50.694;7.246;2023-05-29T02:49:10;14.60;42.90
4097;DHT22;2062;50.694;7.246;2023-05-29T02:51:37;14.60;42.80
4097;DHT22;2062;50.694;7.246;2023-05-29T02:54:05;14.50;43.30
4097;DHT22;2062;50.694;7.246;2023-05-29T02:56:32;14.50;43.50
4097;DHT22;2062;50.694;7.246;2023-05-29T02:58:59;14.50;43.70
4097;DHT22;2062;50.694;7.246;2023-05-29T03:01:27;14.50;43.20
4097;DHT22;2062;50.694;7.246;2023-05-29T03:03:53;14.50;43.60
4097;DHT22;2062;50.694;7.246;2023-05-29T03:06:21;14.60;43.90
4097;DHT22;2062;50.694;7.246;2023-05-29T03:08:48;14.40;43.80
4097;DHT22;2062;50.694;7.246;2023-05-29T03:11:16;14.30;43.70
4097;DHT22;2062;50.694;7.246;2023-05-29T03:13:43;14.30;44.30
4097;DHT22;2062;50.694;7.246;2023-05-29T03:16:12;14.30;43.80
4097;DHT22;2062;50.694;7.246;2023-05-29T03:18:38;14.20;44.10
4097;DHT22;2062;50.694;7.246;2023-05-29T03:21:06;14.40;43.70
4097;DHT22;2062;50.694;7.246;2023-05-29T03:23:33;14.20;44.00
4097;DHT22;2062;50.694;7.246;2023-05-29T03:26:01;14.20;44.30
4097;DHT22;2062;50.694;7.246;2023-05-29T03:28:29;14.20;44.40
4097;DHT22;2062;50.694;7.246;2023-05-29T03:30:56;14.10;44.20
4097;DHT22;2062;50.694;7.246;2023-05-29T03:33:23;14.10;44.60
4097;DHT22;2062;50.694;7.246;2023-05-29T03:35:49;14.10;44.60
4097;DHT22;2062;50.694;7.246;2023-05-29T03:38:16;14.10;44.50
4097;DHT22;2062;50.694;7.246;2023-05-29T03:40:43;14.20;44.50
4097;DHT22;2062;50.694;7.246;2023-05-29T03:43:10;14.00;45.00
4097;DHT22;2062;50.694;7.246;2023-05-29T03:45:38;14.00;45.00
4097;DHT22;2062;50.694;7.246;2023-05-29T03:48:05;14.00;44.80
4097;DHT22;2062;50.694;7.246;2023-05-29T03:50:32;13.90;44.80
4097;DHT22;2062;50.694;7.246;2023-05-29T03:52:59;13.90;44.90
4097;DHT22;2062;50.694;7.246;2023-05-29T03:55:26;13.90;44.80
4097;DHT22;2062;50.694;7.246;2023-05-29T03:57:53;13.90;44.80
4097;DHT22;2062;50.694;7.246;2023-05-29T04:00:21;13.90;44.80
4097;DHT22;2062;50.694;7.246;2023-05-29T04:02:49;14.00;44.60
4097;DHT22;2062;50.694;7.246;2023-05-29T04:05:16;13.90;45.20
4097;DHT22;2062;50.694;7.246;2023-05-29T04:07:43;13.80;44.80
4097;DHT22;2062;50.694;7.246;2023-05-29T04:10:10;13.80;45.20
4097;DHT22;2062;50.694;7.246;2023-05-29T04:12:37;13.80;45.30
4097;DHT22;2062;50.694;7.246;2023-05-29T04:15:05;13.80;45.20
4097;DHT22;2062;50.694;7.246;2023-05-29T04:17:32;13.80;45.20
4097;DHT22;2062;50.694;7.246;2023-05-29T04:20:00;13.80;45.30
4097;DHT22;2062;50.694;7.246;2023-05-29T04:22:33;13.80;45.00
4097;DHT22;2062;50.694;7.246;2023-05-29T04:25:00;13.80;45.10
4097;DHT22;2062;50.694;7.246;2023-05-29T04:27:29;13.70;45.40
4097;DHT22;2062;50.694;7.246;2023-05-29T04:29:57;13.70;45.30
4097;DHT22;2062;50.694;7.246;2023-05-29T04:32:24;13.70;45.50
4097;DHT22;2062;50.694;7.246;2023-05-29T04:34:51;13.70;45.30
4097;DHT22;2062;50.694;7.246;2023-05-29T04:37:19;13.70;45.40
4097;DHT22;2062;50.694;7.246;2023-05-29T04:39:55;13.70;45.50
4097;DHT22;2062;50.694;7.246;2023-05-29T04:42:23;13.70;45.60
4097;DHT22;2062;50.694;7.246;2023-05-29T04:44:50;13.60;45.50
4097;DHT22;2062;50.694;7.246;2023-05-29T04:47:18;13.60;45.70
4097;DHT22;2062;50.694;7.246;2023-05-29T04:49:44;13.60;45.70
4097;DHT22;2062;50.694;7.246;2023-05-29T04:52:14;13.60;45.90
4097;DHT22;2062;50.694;7.246;2023-05-29T04:54:42;13.80;45.90
4097;DHT22;2062;50.694;7.246;2023-05-29T04:57:09;13.70;46.00
4097;DHT22;2062;50.694;7.246;2023-05-29T04:59:36;13.70;46.10
4097;DHT22;2062;50.694;7.246;2023-05-29T05:02:02;13.70;46.20
4097;DHT22;2062;50.694;7.246;2023-05-29T05:04:29;13.60;46.30
4097;DHT22;2062;50.694;7.246;2023-05-29T05:06:57;13.70;46.20
4097;DHT22;2062;50.694;7.246;2023-05-29T05:09:24;13.60;46.40
4097;DHT22;2062;50.694;7.246;2023-05-29T05:11:53;13.60;46.30
4097;DHT22;2062;50.694;7.246;2023-05-29T05:14:20;13.60;46.30
4097;DHT22;2062;50.694;7.246;2023-05-29T05:16:47;13.60;46.30
4097;DHT22;2062;50.694;7.246;2023-05-29T05:19:13;13.60;46.70
4097;DHT22;2062;50.694;7.246;2023-05-29T05:21:40;13.70;46.70
4097;DHT22;2062;50.694;7.246;2023-05-29T05:24:07;13.60;46.70
4097;DHT22;2062;50.694;7.246;2023-05-29T05:26:34;13.60;47.00
4097;DHT22;2062;50.694;7.246;2023-05-29T05:29:02;13.60;47.10
4097;DHT22;2062;50.694;7.246;2023-05-29T05:31:28;13.70;47.20
4097;DHT22;2062;50.694;7.246;2023-05-29T05:33:55;13.70;47.50
4097;DHT22;2062;50.694;7.246;2023-05-29T05:36:23;13.70;47.30
4097;DHT22;2062;50.694;7.246;2023-05-29T05:38:50;13.80;47.50
4097;DHT22;2062;50.694;7.246;2023-05-29T05:41:17;13.80;47.50
4097;DHT22;2062;50.694;7.246;2023-05-29T05:43:43;13.90;47.80
4097;DHT22;2062;50.694;7.246;2023-05-29T05:46:12;13.90;47.70
4097;DHT22;2062;50.694;7.246;2023-05-29T05:48:39;14.00;47.70
4097;DHT22;2062;50.694;7.246;2023-05-29T05:51:06;14.10;48.40
4097;DHT22;2062;50.694;7.246;2023-05-29T05:53:33;14.20;48.60
4097;DHT22;2062;50.694;7.246;2023-05-29T05:56:00;14.30;48.60
4097;DHT22;2062;50.694;7.246;2023-05-29T05:58:26;14.40;48.50
4097;DHT22;2062;50.694;7.246;2023-05-29T06:00:53;14.50;48.20
4097;DHT22;2062;50.694;7.246;2023-05-29T06:03:21;14.60;48.10
4097;DHT22;2062;50.694;7.246;2023-05-29T06:05:48;14.70;48.30
4097;DHT22;2062;50.694;7.246;2023-05-29T06:08:16;14.80;48.30
4097;DHT22;2062;50.694;7.246;2023-05-29T06:10:43;15.00;48.80
4097;DHT22;2062;50.694;7.246;2023-05-29T06:13:11;15.20;48.90
4097;DHT22;2062;50.694;7.246;2023-05-29T06:15:38;15.30;48.90
4097;DHT22;2062;50.694;7.246;2023-05-29T06:18:05;15.50;48.70
4097;DHT22;2062;50.694;7.246;2023-05-29T06:20:33;15.70;48.80
4097;DHT22;2062;50.694;7.246;2023-05-29T06:22:59;15.90;48.70
4097;DHT22;2062;50.694;7.246;2023-05-29T06:25:26;16.00;48.40
4097;DHT22;2062;50.694;7.246;2023-05-29T06:27:58;16.20;47.80
4097;DHT22;2062;50.694;7.246;2023-05-29T06:30:25;16.40;47.90
4097;DHT22;2062;50.694;7.246;2023-05-29T06:32:52;16.60;47.70
4097;DHT22;2062;50.694;7.246;2023-05-29T06:35:18;16.80;47.30
4097;DHT22;2062;50.694;7.246;2023-05-29T06:37:47;16.90;47.10
4097;DHT22;2062;50.694;7.246;2023-05-29T06:40:14;17.10;46.60
4097;DHT22;2062;50.694;7.246;2023-05-29T06:42:41;17.20;46.20
4097;DHT22;2062;50.694;7.246;2023-05-29T06:45:10;17.40;45.90
4097;DHT22;2062;50.694;7.246;2023-05-29T06:47:38;17.50;45.60
4097;DHT22;2062;50.694;7.246;2023-05-29T06:50:06;17.60;45.40
4097;DHT22;2062;50.694;7.246;2023-05-29T06:52:33;17.80;45.90
4097;DHT22;2062;50.694;7.246;2023-05-29T06:55:01;17.90;45.00
4097;DHT22;2062;50.694;7.246;2023-05-29T06:57:28;18.00;44.60
4097;DHT22;2062;50.694;7.246;2023-05-29T06:59:55;18.10;44.20
4097;DHT22;2062;50.694;7.246;2023-05-29T07:02:21;18.30;44.00
4097;DHT22;2062;50.694;7.246;2023-05-29T07:04:48;18.30;43.70
4097;DHT22;2062;50.694;7.246;2023-05-29T07:07:15;18.40;43.40
4097;DHT22;2062;50.694;7.246;2023-05-29T07:09:42;18.50;43.20
4097;DHT22;2062;50.694;7.246;2023-05-29T07:12:10;18.70;43.30
4097;DHT22;2062;50.694;7.246;2023-05-29T07:15:38;18.70;42.90
4097;DHT22;2062;50.694;7.246;2023-05-29T07:18:05;18.90;42.80
4097;DHT22;2062;50.694;7.246;2023-05-29T07:20:32;19.00;42.50
4097;DHT22;2062;50.694;7.246;2023-05-29T07:22:59;19.10;42.10
4097;DHT22;2062;50.694;7.246;2023-05-29T07:25:25;19.20;42.10
4097;DHT22;2062;50.694;7.246;2023-05-29T07:27:52;19.30;42.60
4097;DHT22;2062;50.694;7.246;2023-05-29T07:30:19;19.30;41.60
4097;DHT22;2062;50.694;7.246;2023-05-29T07:32:47;19.40;41.50
4097;DHT22;2062;50.694;7.246;2023-05-29T07:35:14;19.50;41.40
4097;DHT22;2062;50.694;7.246;2023-05-29T07:37:41;19.60;41.20
4097;DHT22;2062;50.694;7.246;2023-05-29T07:40:08;19.70;40.70
4097;DHT22;2062;50.694;7.246;2023-05-29T07:42:35;19.80;40.60
4097;DHT22;2062;50.694;7.246;2023-05-29T07:45:03;19.80;40.20
4097;DHT22;2062;50.694;7.246;2023-05-29T07:47:30;20.00;40.20
4097;DHT22;2062;50.694;7.246;2023-05-29T07:49:58;20.00;40.10
4097;DHT22;2062;50.694;7.246;2023-05-29T07:52:25;20.20;39.90
4097;DHT22;2062;50.694;7.246;2023-05-29T07:54:52;20.20;40.10
4097;DHT22;2062;50.694;7.246;2023-05-29T07:57:19;20.30;40.50
4097;DHT22;2062;50.694;7.246;2023-05-29T07:59:46;20.40;40.00
4097;DHT22;2062;50.694;7.246;2023-05-29T08:02:14;20.50;39.90
4097;DHT22;2062;50.694;7.246;2023-05-29T08:04:41;20.60;39.50
4097;DHT22;2062;50.694;7.246;2023-05-29T08:07:09;20.60;39.90
4097;DHT22;2062;50.694;7.246;2023-05-29T08:09:36;20.80;39.70
4097;DHT22;2062;50.694;7.246;2023-05-29T08:12:03;20.90;39.30
4097;DHT22;2062;50.694;7.246;2023-05-29T08:14:31;21.00;39.10
4097;DHT22;2062;50.694;7.246;2023-05-29T08:16:58;21.00;38.80
4097;DHT22;2062;50.694;7.246;2023-05-29T08:19:25;21.20;38.80
4097;DHT22;2062;50.694;7.246;2023-05-29T08:21:52;21.20;38.60
4097;DHT22;2062;50.694;7.246;2023-05-29T08:24:20;21.30;38.40
4097;DHT22;2062;50.694;7.246;2023-05-29T08:26:47;21.40;38.00
4097;DHT22;2062;50.694;7.246;2023-05-29T08:29:13;21.50;38.30
4097;DHT22;2062;50.694;7.246;2023-05-29T08:31:41;21.60;38.30
4097;DHT22;2062;50.694;7.246;2023-05-29T08:34:08;21.70;37.90
4097;DHT22;2062;50.694;7.246;2023-05-29T08:36:35;21.80;38.10
4097;DHT22;2062;50.694;7.246;2023-05-29T08:39:02;21.90;38.30
4097;DHT22;2062;50.694;7.246;2023-05-29T08:41:36;22.00;38.00
4097;DHT22;2062;50.694;7.246;2023-05-29T08:44:08;22.10;37.80
4097;DHT22;2062;50.694;7.246;2023-05-29T08:46:37;22.20;37.10
4097;DHT22;2062;50.694;7.246;2023-05-29T08:49:05;22.40;37.30
4097;DHT22;2062;50.694;7.246;2023-05-29T08:51:37;22.40;37.00
4097;DHT22;2062;50.694;7.246;2023-05-29T08:54:04;22.50;36.80
4097;DHT22;2062;50.694;7.246;2023-05-29T08:56:33;22.50;36.90
4097;DHT22;2062;50.694;7.246;2023-05-29T08:59:01;22.60;37.00
4097;DHT22;2062;50.694;7.246;2023-05-29T09:01:28;22.70;36.60
4097;DHT22;2062;50.694;7.246;2023-05-29T09:03:56;22.80;36.50
4097;DHT22;2062;50.694;7.246;2023-05-29T09:06:23;22.90;36.60
4097;DHT22;2062;50.694;7.246;2023-05-29T09:08:51;22.90;36.50
4097;DHT22;2062;50.694;7.246;2023-05-29T09:11:18;23.00;36.40
4097;DHT22;2062;50.694;7.246;2023-05-29T09:13:46;23.00;35.80
4097;DHT22;2062;50.694;7.246;2023-05-29T09:16:16;23.10;35.90
4097;DHT22;2062;50.694;7.246;2023-05-29T09:18:43;23.20;35.90
4097;DHT22;2062;50.694;7.246;2023-05-29T09:21:26;23.30;35.80
4097;DHT22;2062;50.694;7.246;2023-05-29T09:24:03;23.30;35.50
4097;DHT22;2062;50.694;7.246;2023-05-29T09:26:30;23.40;35.60
4097;DHT22;2062;50.694;7.246;2023-05-29T09:28:59;23.40;35.10
4097;DHT22;2062;50.694;7.246;2023-05-29T09:31:26;23.40;35.20
4097;DHT22;2062;50.694;7.246;2023-05-29T09:33:54;23.50;34.80
4097;DHT22;2062;50.694;7.246;2023-05-29T09:36:21;23.40;34.80
4097;DHT22;2062;50.694;7.246;2023-05-29T09:38:48;23.50;35.30
4097;DHT22;2062;50.694;7.246;2023-05-29T09:41:20;23.50;34.90
4097;DHT22;2062;50.694;7.246;2023-05-29T09:43:49;23.60;35.00
4097;DHT22;2062;50.694;7.246;2023-05-29T09:46:17;23.60;34.80
4097;DHT22;2062;50.694;7.246;2023-05-29T09:48:44;23.70;34.80
4097;DHT22;2062;50.694;7.246;2023-05-29T09:51:19;23.70;34.40
4097;DHT22;2062;50.694;7.246;2023-05-29T09:53:47;23.70;34.90
4097;DHT22;2062;50.694;7.246;2023-05-29T09:56:16;23.70;34.50
4097;DHT22;2062;50.694;7.246;2023-05-29T09:58:44;23.80;34.30
4097;DHT22;2062;50.694;7.246;2023-05-29T10:01:12;23.90;34.70
4097;DHT22;2062;50.694;7.246;2023-05-29T10:03:42;23.90;34.80
4097;DHT22;2062;50.694;7.246;2023-05-29T10:06:10;24.10;34.80
4097;DHT22;2062;50.694;7.246;2023-05-29T10:08:45;24.10;34.20
4097;DHT22;2062;50.694;7.246;2023-05-29T10:11:14;24.20;34.60
4097;DHT22;2062;50.694;7.246;2023-05-29T10:13:46;24.30;34.30
4097;DHT22;2062;50.694;7.246;2023-05-29T10:16:15;24.30;34.20
4097;DHT22;2062;50.694;7.246;2023-05-29T10:18:50;24.50;34.60
4097;DHT22;2062;50.694;7.246;2023-05-29T10:21:21;24.50;34.80
4097;DHT22;2062;50.694;7.246;2023-05-29T10:23:50;24.70;34.20
4097;DHT22;2062;50.694;7.246;2023-05-29T10:26:19;24.80;33.80
4097;DHT22;2062;50.694;7.246;2023-05-29T10:28:52;24.80;33.60
4097;DHT22;2062;50.694;7.246;2023-05-29T10:31:24;24.90;33.50
4097;DHT22;2062;50.694;7.246;2023-05-29T10:34:03;25.00;33.30
4097;DHT22;2062;50.694;7.246;2023-05-29T10:36:38;25.10;33.50
4097;DHT22;2062;50.694;7.246;2023-05-29T10:39:07;25.10;33.60
4097;DHT22;2062;50.694;7.246;2023-05-29T10:41:34;25.30;32.60
4097;DHT22;2062;50.694;7.246;2023-05-29T10:44:37;25.30;32.80
4097;DHT22;2062;50.694;7.246;2023-05-29T10:47:05;25.40;32.80
4097;DHT22;2062;50.694;7.246;2023-05-29T10:49:35;25.40;33.20
4097;DHT22;2062;50.694;7.246;2023-05-29T10:52:04;25.60;32.60
4097;DHT22;2062;50.694;7.246;2023-05-29T10:54:41;25.70;32.70
4097;DHT22;2062;50.694;7.246;2023-05-29T10:57:16;25.70;33.90
4097;DHT22;2062;50.694;7.246;2023-05-29T10:59:44;25.90;33.70
4097;DHT22;2062;50.694;7.246;2023-05-29T11:02:17;26.00;33.30
4097;DHT22;2062;50.694;7.246;2023-05-29T11:05:04;26.10;32.60
4097;DHT22;2062;50.694;7.246;2023-05-29T11:07:34;26.10;31.90
4097;DHT22;2062;50.694;7.246;2023-05-29T11:10:11;26.20;32.20
4097;DHT22;2062;50.694;7.246;2023-05-29T11:12:56;26.30;32.00
4097;DHT22;2062;50.694;7.246;2023-05-29T11:15:24;26.30;32.30
4097;DHT22;2062;50.694;7.246;2023-05-29T11:17:51;26.30;32.50
4097;DHT22;2062;50.694;7.246;2023-05-29T11:20:28;26.40;32.50
4097;DHT22;2062;50.694;7.246;2023-05-29T11:23:04;26.40;31.70
4097;DHT22;2062;50.694;7.246;2023-05-29T11:25:35;26.50;31.80
4097;DHT22;2062;50.694;7.246;2023-05-29T11:28:03;26.50;31.80
4097;DHT22;2062;50.694;7.246;2023-05-29T11:30:41;26.50;30.50
4097;DHT22;2062;50.694;7.246;2023-05-29T11:33:09;26.50;31.30
4097;DHT22;2062;50.694;7.246;2023-05-29T11:35:43;26.40;31.60
4097;DHT22;2062;50.694;7.246;2023-05-29T11:38:11;26.40;31.40
4097;DHT22;2062;50.694;7.246;2023-05-29T11:40:38;26.50;31.40
4097;DHT22;2062;50.694;7.246;2023-05-29T11:43:05;26.50;31.20
4097;DHT22;2062;50.694;7.246;2023-05-29T11:45:33;26.50;31.60
4097;DHT22;2062;50.694;7.246;2023-05-29T11:48:01;26.60;31.60
4097;DHT22;2062;50.694;7.246;2023-05-29T11:50:29;26.60;30.90
4097;DHT22;2062;50.694;7.246;2023-05-29T11:52:59;26.60;31.10
4097;DHT22;2062;50.694;7.246;2023-05-29T11:55:27;26.60;30.90
4097;DHT22;2062;50.694;7.246;2023-05-29T11:57:56;26.60;30.80
4097;DHT22;2062;50.694;7.246;2023-05-29T12:00:24;26.70;30.60
4097;DHT22;2062;50.694;7.246;2023-05-29T12:02:51;26.60;30.90
4097;DHT22;2062;50.694;7.246;2023-05-29T12:05:18;26.60;30.00
4097;DHT22;2062;50.694;7.246;2023-05-29T12:07:49;26.70;30.60
4097;DHT22;2062;50.694;7.246;2023-05-29T12:10:19;26.70;30.70
4097;DHT22;2062;50.694;7.246;2023-05-29T12:12:51;26.80;31.00
4097;DHT22;2062;50.694;7.246;2023-05-29T12:15:18;26.80;30.40
4097;DHT22;2062;50.694;7.246;2023-05-29T12:17:47;26.80;30.60
4097;DHT22;2062;50.694;7.246;2023-05-29T12:20:15;26.80;30.60
4097;DHT22;2062;50.694;7.246;2023-05-29T12:22:44;26.80;30.40
4097;DHT22;2062;50.694;7.246;2023-05-29T12:25:12;26.90;30.40
4097;DHT22;2062;50.694;7.246;2023-05-29T12:27:41;27.00;31.00
4097;DHT22;2062;50.694;7.246;2023-05-29T12:30:09;27.00;30.60
4097;DHT22;2062;50.694;7.246;2023-05-29T12:32:37;27.00;30.50
4097;DHT22;2062;50.694;7.246;2023-05-29T12:35:14;27.10;30.90
4097;DHT22;2062;50.694;7.246;2023-05-29T12:37:43;27.10;31.00
4097;DHT22;2062;50.694;7.246;2023-05-29T12:40:11;27.20;31.00
4097;DHT22;2062;50.694;7.246;2023-05-29T12:42:39;27.20;31.00
4097;DHT22;2062;50.694;7.246;2023-05-29T12:45:07;27.40;30.60
4097;DHT22;2062;50.694;7.246;2023-05-29T12:47:35;27.40;30.50
4097;DHT22;2062;50.694;7.246;2023-05-29T12:50:18;27.40;30.50
4097;DHT22;2062;50.694;7.246;2023-05-29T12:52:45;27.50;30.00
4097;DHT22;2062;50.694;7.246;2023-05-29T12:55:12;27.60;30.50
4097;DHT22;2062;50.694;7.246;2023-05-29T12:57:40;27.60;30.30
4097;DHT22;2062;50.694;7.246;2023-05-29T13:00:11;27.70;30.00
4097;DHT22;2062;50.694;7.246;2023-05-29T13:02:38;27.70;30.00
4097;DHT22;2062;50.694;7.246;2023-05-29T13:05:05;27.70;30.00
4097;DHT22;2062;50.694;7.246;2023-05-29T13:07:32;27.70;29.70
4097;DHT22;2062;50.694;7.246;2023-05-29T13:09:59;27.80;29.80
4097;DHT22;2062;50.694;7.246;2023-05-29T13:12:27;27.80;30.10
4097;DHT22;2062;50.694;7.246;2023-05-29T13:14:55;27.80;29.80
4097;DHT22;2062;50.694;7.246;2023-05-29T13:17:22;27.80;29.90
4097;DHT22;2062;50.694;7.246;2023-05-29T13:19:49;27.90;29.90
4097;DHT22;2062;50.694;7.246;2023-05-29T13:22:16;27.90;29.20
4097;DHT22;2062;50.694;7.246;2023-05-29T13:24:43;27.90;29.40
4097;DHT22;2062;50.694;7.246;2023-05-29T13:27:10;28.00;29.90
4097;DHT22;2062;50.694;7.246;2023-05-29T13:29:39;28.00;30.50
4097;DHT22;2062;50.694;7.246;2023-05-29T13:32:08;28.10;29.90
4097;DHT22;2062;50.694;7.246;2023-05-29T13:34:35;28.20;29.00
4097;DHT22;2062;50.694;7.246;2023-05-29T13:37:01;28.20;29.40
4097;DHT22;2062;50.694;7.246;2023-05-29T13:39:28;28.20;29.80
4097;DHT22;2062;50.694;7.246;2023-05-29T13:41:55;28.20;29.20
4097;DHT22;2062;50.694;7.246;2023-05-29T13:44:22;28.20;29.30
4097;DHT22;2062;50.694;7.246;2023-05-29T13:46:49;28.30;28.60
4097;DHT22;2062;50.694;7.246;2023-05-29T13:49:18;28.30;28.90
4097;DHT22;2062;50.694;7.246;2023-05-29T13:51:45;28.30;28.30
4097;DHT22;2062;50.694;7.246;2023-05-29T13:54:15;28.20;27.90
4097;DHT22;2062;50.694;7.246;2023-05-29T13:56:42;28.20;28.00
4097;DHT22;2062;50.694;7.246;2023-05-29T13:59:09;28.20;27.80
4097;DHT22;2062;50.694;7.246;2023-05-29T14:01:36;28.10;28.40
4097;DHT22;2062;50.694;7.246;2023-05-29T14:04:03;28.10;28.70
4097;DHT22;2062;50.694;7.246;2023-05-29T14:06:31;28.20;28.90
4097;DHT22;2062;50.694;7.246;2023-05-29T14:08:59;28.20;28.50
4097;DHT22;2062;50.694;7.246;2023-05-29T14:11:26;28.20;28.50
4097;DHT22;2062;50.694;7.246;2023-05-29T14:13:53;28.20;28.70
4097;DHT22;2062;50.694;7.246;2023-05-29T14:16:20;28.20;28.50
4097;DHT22;2062;50.694;7.246;2023-05-29T14:18:47;28.20;28.30
4097;DHT22;2062;50.694;7.246;2023-05-29T14:21:15;28.30;28.20
4097;DHT22;2062;50.694;7.246;2023-05-29T14:23:43;28.30;28.50
4097;DHT22;2062;50.694;7.246;2023-05-29T14:26:10;28.30;28.50
4097;DHT22;2062;50.694;7.246;2023-05-29T14:28:37;28.30;28.00
4097;DHT22;2062;50.694;7.246;2023-05-29T14:31:05;28.30;27.90
4097;DHT22;2062;50.694;7.246;2023-05-29T14:33:32;28.20;27.90
4097;DHT22;2062;50.694;7.246;2023-05-29T14:35:59;28.30;28.20
4097;DHT22;2062;50.694;7.246;2023-05-29T14:38:26;28.30;28.70
4097;DHT22;2062;50.694;7.246;2023-05-29T14:40:54;28.40;28.60
4097;DHT22;2062;50.694;7.246;2023-05-29T14:43:21;28.40;28.20
4097;DHT22;2062;50.694;7.246;2023-05-29T14:45:47;28.40;28.20
4097;DHT22;2062;50.694;7.246;2023-05-29T14:51:35;28.50;27.60
4097;DHT22;2062;50.694;7.246;2023-05-29T14:54:04;28.60;28.00
4097;DHT22;2062;50.694;7.246;2023-05-29T14:56:32;28.60;28.10
4097;DHT22;2062;50.694;7.246;2023-05-29T14:58:59;28.60;27.60
4097;DHT22;2062;50.694;7.246;2023-05-29T15:01:26;28.60;27.70
4097;DHT22;2062;50.694;7.246;2023-05-29T15:07:16;28.60;26.80
4097;DHT22;2062;50.694;7.246;2023-05-29T15:09:43;28.60;27.70
4097;DHT22;2062;50.694;7.246;2023-05-29T15:12:11;28.60;27.40
4097;DHT22;2062;50.694;7.246;2023-05-29T15:14:38;28.50;26.70
4097;DHT22;2062;50.694;7.246;2023-05-29T15:17:05;28.50;26.80
4097;DHT22;2062;50.694;7.246;2023-05-29T15:19:31;28.50;26.90
4097;DHT22;2062;50.694;7.246;2023-05-29T15:21:58;28.40;27.10
4097;DHT22;2062;50.694;7.246;2023-05-29T15:24:25;28.40;26.50
4097;DHT22;2062;50.694;7.246;2023-05-29T15:26:52;28.30;26.10
4097;DHT22;2062;50.694;7.246;2023-05-29T15:29:20;28.20;26.30
4097;DHT22;2062;50.694;7.246;2023-05-29T15:31:47;28.10;26.70
4097;DHT22;2062;50.694;7.246;2023-05-29T15:34:14;28.00;26.90
4097;DHT22;2062;50.694;7.246;2023-05-29T15:36:40;28.00;26.50
4097;DHT22;2062;50.694;7.246;2023-05-29T15:39:08;28.00;26.60
4097;DHT22;2062;50.694;7.246;2023-05-29T15:41:35;28.00;27.00
4097;DHT22;2062;50.694;7.246;2023-05-29T15:44:02;27.90;26.60
4097;DHT22;2062;50.694;7.246;2023-05-29T15:46:30;27.90;26.40
4097;DHT22;2062;50.694;7.246;2023-05-29T15:48:56;27.80;26.10
4097;DHT22;2062;50.694;7.246;2023-05-29T15:51:23;27.80;26.10
4097;DHT22;2062;50.694;7.246;2023-05-29T15:53:50;27.70;26.30
4097;DHT22;2062;50.694;7.246;2023-05-29T15:56:17;27.70;26.10
4097;DHT22;2062;50.694;7.246;2023-05-29T15:58:44;27.60;26.40
4097;DHT22;2062;50.694;7.246;2023-05-29T16:01:11;27.50;26.40
4097;DHT22;2062;50.694;7.246;2023-05-29T16:03:39;27.60;26.60
4097;DHT22;2062;50.694;7.246;2023-05-29T16:06:06;27.50;26.60
4097;DHT22;2062;50.694;7.246;2023-05-29T16:08:33;27.40;26.70
4097;DHT22;2062;50.694;7.246;2023-05-29T16:10:59;27.40;26.70
4097;DHT22;2062;50.694;7.246;2023-05-29T16:13:26;27.30;26.40
4097;DHT22;2062;50.694;7.246;2023-05-29T16:15:55;27.30;26.80